createdAt,value
2024-02-08T00:01:54.231Z,9.40
2024-02-08T00:04:20.936Z,9.40
2024-02-08T00:06:47.683Z,9.50
2024-02-08T00:09:14.444Z,9.50
2024-02-08T00:11:41.271Z,9.50
2024-02-08T00:14:08.017Z,9.60
2024-02-08T00:16:38.611Z,9.40
2024-02-08T00:19:05.529Z,9.40
2024-02-08T00:21:33.486Z,9.40
2024-02-08T00:24:01.338Z,9.40
2024-02-08T00:26:28.103Z,9.50
2024-02-08T00:28:54.832Z,9.50
2024-02-08T00:31:21.577Z,9.40
2024-02-08T00:33:49.529Z,9.40
2024-02-08T00:36:16.440Z,9.50
2024-02-08T00:38:46.171Z,9.50
2024-02-08T00:41:13.017Z,9.50
2024-02-08T00:43:40.405Z,9.40
2024-02-08T00:46:07.647Z,9.50
2024-02-08T00:48:34.474Z,9.50
2024-02-08T00:51:01.292Z,9.50
2024-02-08T00:53:27.974Z,9.50
2024-02-08T00:55:54.657Z,9.50
2024-02-08T00:58:22.914Z,9.50
2024-02-08T01:00:49.893Z,9.50
2024-02-08T01:03:16.724Z,9.60
2024-02-08T01:05:44.372Z,9.60
2024-02-08T01:08:11.304Z,9.60
2024-02-08T01:10:38.204Z,9.60
2024-02-08T01:13:05.673Z,9.60
2024-02-08T01:15:32.405Z,9.70
2024-02-08T01:17:59.794Z,9.70
2024-02-08T01:20:29.464Z,9.70
2024-02-08T01:22:56.759Z,9.70
2024-02-08T01:25:23.744Z,9.70
2024-02-08T01:27:50.730Z,9.60
2024-02-08T01:30:17.583Z,9.50
2024-02-08T01:32:44.342Z,9.60
2024-02-08T01:35:22.778Z,9.60
2024-02-08T01:37:49.837Z,9.70
2024-02-08T01:40:19.458Z,9.70
2024-02-08T01:42:49.979Z,9.70
2024-02-08T01:45:31.570Z,9.70
2024-02-08T01:48:04.074Z,9.70
2024-02-08T01:50:38.963Z,9.70
2024-02-08T01:53:09.002Z,9.70
2024-02-08T01:55:36.282Z,9.60
2024-02-08T01:58:10.159Z,9.60
2024-02-08T02:00:38.318Z,9.70
2024-02-08T02:03:06.203Z,9.70
2024-02-08T02:05:33.345Z,9.70
2024-02-08T02:08:00.312Z,9.70
2024-02-08T02:10:31.154Z,9.70
2024-02-08T02:13:01.499Z,9.70
2024-02-08T02:15:33.028Z,9.70
2024-02-08T02:18:05.063Z,9.70
2024-02-08T02:20:31.967Z,9.70
2024-02-08T02:23:00.109Z,9.70
2024-02-08T02:25:30.471Z,9.70
2024-02-08T02:28:01.893Z,9.70
2024-02-08T02:30:29.481Z,9.70
2024-02-08T02:33:01.187Z,9.70
2024-02-08T02:35:29.930Z,9.70
2024-02-08T02:38:03.379Z,9.70
2024-02-08T02:40:31.743Z,9.70
2024-02-08T02:42:59.274Z,9.70
2024-02-08T02:45:30.270Z,9.70
2024-02-08T02:47:59.343Z,9.70
2024-02-08T02:50:26.482Z,9.80
2024-02-08T02:52:53.532Z,9.80
2024-02-08T02:55:21.327Z,9.80
2024-02-08T02:57:48.465Z,9.90
2024-02-08T03:00:34.768Z,9.80
2024-02-08T03:03:10.257Z,9.80
2024-02-08T03:05:41.369Z,9.80
2024-02-08T03:08:08.348Z,9.70
2024-02-08T03:10:39.506Z,9.80
2024-02-08T03:13:08.888Z,9.80
2024-02-08T03:15:38.062Z,9.80
2024-02-08T03:18:05.518Z,9.70
2024-02-08T03:20:32.280Z,9.70
2024-02-08T03:22:59.962Z,9.70
2024-02-08T03:25:27.229Z,9.80
2024-02-08T03:27:54.261Z,9.80
2024-02-08T03:30:24.356Z,9.80
2024-02-08T03:32:52.407Z,9.80
2024-02-08T03:35:20.612Z,9.80
2024-02-08T03:37:50.026Z,9.80
2024-02-08T03:40:22.011Z,9.80
2024-02-08T03:42:50.009Z,9.80
2024-02-08T03:45:24.472Z,9.70
2024-02-08T03:47:51.969Z,9.70
2024-02-08T03:50:25.875Z,9.70
2024-02-08T03:52:52.903Z,9.80
2024-02-08T03:55:27.411Z,9.80
2024-02-08T03:57:57.283Z,9.80
2024-02-08T04:00:29.454Z,9.90
2024-02-08T04:03:03.847Z,9.80
2024-02-08T04:05:49.315Z,9.80
2024-02-08T04:08:24.943Z,9.90
2024-02-08T04:10:52.209Z,9.80
2024-02-08T04:13:40.184Z,9.80
2024-02-08T04:16:25.549Z,9.80
2024-02-08T04:19:11.048Z,9.80
2024-02-08T04:21:56.309Z,9.80
2024-02-08T04:24:41.784Z,9.90
2024-02-08T04:27:27.401Z,9.90
2024-02-08T04:30:12.829Z,9.90
2024-02-08T04:32:58.534Z,9.90
2024-02-08T04:35:43.962Z,9.90
2024-02-08T04:38:29.327Z,9.90
2024-02-08T04:41:14.800Z,9.90
2024-02-08T04:44:00.350Z,9.80
2024-02-08T04:46:45.931Z,9.80
2024-02-08T04:49:33.683Z,9.90
2024-02-08T04:52:19.087Z,9.90
2024-02-08T04:54:45.749Z,9.90
2024-02-08T04:57:12.417Z,9.90
2024-02-08T04:59:43.639Z,10.00
2024-02-08T05:02:10.644Z,9.90
2024-02-08T05:04:37.723Z,9.90
2024-02-08T05:07:05.978Z,10.00
2024-02-08T05:09:33.149Z,10.00
2024-02-08T05:12:07.227Z,9.90
2024-02-08T05:14:36.848Z,9.90
2024-02-08T05:17:04.369Z,10.00
2024-02-08T05:19:31.207Z,10.00
2024-02-08T05:22:00.642Z,9.90
2024-02-08T05:24:29.188Z,10.00
2024-02-08T05:26:56.490Z,10.00
2024-02-08T05:29:23.376Z,10.00
2024-02-08T05:31:51.161Z,10.00
2024-02-08T05:34:19.265Z,10.00
2024-02-08T05:36:47.918Z,9.90
2024-02-08T05:39:15.401Z,9.90
2024-02-08T05:41:45.988Z,9.90
2024-02-08T05:44:13.959Z,9.90
2024-02-08T05:46:40.927Z,9.90
2024-02-08T05:49:16.016Z,9.90
2024-02-08T05:51:57.701Z,9.90
2024-02-08T05:54:32.945Z,9.90
2024-02-08T05:57:05.490Z,10.00
2024-02-08T05:59:33.102Z,10.20
2024-02-08T06:02:01.048Z,10.10
2024-02-08T06:04:36.205Z,10.10
2024-02-08T06:07:07.121Z,10.00
2024-02-08T06:09:46.942Z,10.00
2024-02-08T06:12:21.649Z,10.00
2024-02-08T06:14:48.373Z,9.90
2024-02-08T06:17:25.001Z,9.90
2024-02-08T06:19:52.322Z,9.90
2024-02-08T06:22:24.029Z,9.90
2024-02-08T06:24:51.669Z,9.90
2024-02-08T06:27:24.548Z,10.00
2024-02-08T06:29:54.152Z,10.00
2024-02-08T06:32:29.815Z,9.90
2024-02-08T06:35:09.595Z,9.90
2024-02-08T06:37:45.443Z,9.80
2024-02-08T06:40:23.361Z,9.80
2024-02-08T06:43:10.372Z,9.80
2024-02-08T06:45:52.827Z,9.70
2024-02-08T06:48:50.493Z,9.80
2024-02-08T06:51:36.045Z,9.80
2024-02-08T06:54:21.515Z,9.80
2024-02-08T06:57:07.070Z,9.90
2024-02-08T06:59:55.325Z,9.70
2024-02-08T07:02:40.984Z,9.70
2024-02-08T07:05:26.471Z,9.60
2024-02-08T07:08:12.040Z,9.60
2024-02-08T07:10:57.338Z,9.60
2024-02-08T07:13:42.665Z,9.70
2024-02-08T07:16:28.271Z,9.70
2024-02-08T07:19:13.462Z,9.70
2024-02-08T07:21:59.074Z,9.70
2024-02-08T07:24:44.548Z,9.70
2024-02-08T07:27:30.097Z,9.70
2024-02-08T07:30:15.586Z,9.70
2024-02-08T07:33:00.989Z,9.70
2024-02-08T07:35:46.504Z,9.70
2024-02-08T07:38:15.598Z,9.70
2024-02-08T07:40:44.910Z,9.70
2024-02-08T07:43:15.267Z,9.70
2024-02-08T07:45:47.413Z,9.70
2024-02-08T07:48:15.471Z,9.70
2024-02-08T07:50:48.960Z,9.70
2024-02-08T07:53:35.243Z,9.80
2024-02-08T07:56:24.303Z,9.70
2024-02-08T07:59:04.687Z,9.70
2024-02-08T08:01:45.189Z,9.70
2024-02-08T08:04:13.832Z,9.70
2024-02-08T08:06:50.314Z,9.70
2024-02-08T08:09:22.063Z,9.70
2024-02-08T08:11:49.541Z,9.60
2024-02-08T08:14:39.159Z,9.70
2024-02-08T08:17:09.808Z,9.70
2024-02-08T08:19:40.474Z,9.70
2024-02-08T08:22:21.257Z,9.80
2024-02-08T08:25:15.307Z,9.80
2024-02-08T08:28:11.226Z,9.80
2024-02-08T08:30:54.892Z,9.80
2024-02-08T08:33:42.033Z,9.90
2024-02-08T08:36:28.957Z,9.90
2024-02-08T08:39:19.688Z,10.00
2024-02-08T08:41:48.468Z,10.10
2024-02-08T08:44:16.597Z,10.10
2024-02-08T08:46:43.569Z,10.10
2024-02-08T08:49:15.604Z,10.20
2024-02-08T08:51:44.470Z,10.20
2024-02-08T08:54:26.777Z,10.20
2024-02-08T08:56:58.016Z,10.30
2024-02-08T08:59:27.687Z,10.30
2024-02-08T09:01:55.214Z,10.30
2024-02-08T09:04:33.314Z,10.40
2024-02-08T09:07:11.633Z,10.40
2024-02-08T09:09:55.659Z,10.40
2024-02-08T09:12:40.468Z,10.40
2024-02-08T09:15:27.892Z,10.50
2024-02-08T09:18:10.459Z,10.50
2024-02-08T09:20:38.981Z,10.60
2024-02-08T09:23:14.785Z,10.60
2024-02-08T09:25:45.667Z,10.70
2024-02-08T09:28:27.476Z,10.70
2024-02-08T09:30:57.519Z,10.70
2024-02-08T09:33:31.491Z,10.80
2024-02-08T09:36:01.275Z,10.80
2024-02-08T09:38:29.572Z,10.90
2024-02-08T09:41:00.694Z,10.90
2024-02-08T09:43:30.594Z,10.90
2024-02-08T09:46:32.999Z,10.90
2024-02-08T09:49:19.158Z,11.10
2024-02-08T09:51:55.282Z,11.10
2024-02-08T09:54:32.005Z,11.20
2024-02-08T09:57:24.711Z,11.30
2024-02-08T10:00:08.345Z,11.40
2024-02-08T10:02:38.156Z,11.30
2024-02-08T10:05:30.210Z,11.30
2024-02-08T10:08:28.253Z,11.40
2024-02-08T10:11:12.270Z,11.30
2024-02-08T10:13:57.091Z,11.40
2024-02-08T10:16:43.107Z,11.50
2024-02-08T10:19:28.956Z,11.50
2024-02-08T10:22:01.920Z,11.50
2024-02-08T10:24:48.092Z,11.50
2024-02-08T10:27:23.569Z,11.50
2024-02-08T10:30:06.347Z,11.50
2024-02-08T10:32:38.287Z,11.70
2024-02-08T10:35:16.225Z,11.60
2024-02-08T10:37:48.704Z,11.60
2024-02-08T10:40:33.543Z,11.70
2024-02-08T10:43:03.968Z,11.70
2024-02-08T10:45:33.489Z,11.70
2024-02-08T10:48:04.541Z,11.70
2024-02-08T10:50:35.933Z,11.70
2024-02-08T10:53:05.006Z,11.70
2024-02-08T10:55:38.528Z,11.60
2024-02-08T10:58:10.857Z,11.50
2024-02-08T11:00:41.814Z,11.50
2024-02-08T11:03:15.732Z,11.50
2024-02-08T11:05:50.590Z,11.50
2024-02-08T11:08:26.166Z,11.40
2024-02-08T11:11:00.237Z,11.50
2024-02-08T11:13:38.918Z,11.50
2024-02-08T11:16:22.902Z,11.60
2024-02-08T11:18:53.931Z,11.70
2024-02-08T11:21:29.976Z,11.70
2024-02-08T11:23:58.563Z,11.70
2024-02-08T11:26:28.867Z,11.70
2024-02-08T11:29:20.166Z,11.70
2024-02-08T11:31:50.124Z,11.70
2024-02-08T11:34:25.291Z,11.70
2024-02-08T11:37:00.445Z,11.70
2024-02-08T11:39:31.434Z,11.80
2024-02-08T11:42:06.432Z,11.80
2024-02-08T11:44:44.731Z,11.80
2024-02-08T11:47:24.256Z,11.90
2024-02-08T11:50:04.910Z,11.90
2024-02-08T11:52:33.343Z,11.90
2024-02-08T11:55:13.655Z,11.90
2024-02-08T11:57:42.548Z,12.00
2024-02-08T12:00:17.771Z,11.90
2024-02-08T12:02:58.532Z,12.00
2024-02-08T12:05:27.665Z,12.00
2024-02-08T12:08:09.681Z,12.00
2024-02-08T12:10:38.955Z,12.10
2024-02-08T12:13:06.411Z,12.10
2024-02-08T12:15:36.164Z,12.10
2024-02-08T12:18:06.838Z,12.10
2024-02-08T12:20:37.738Z,12.10
2024-02-08T12:23:05.587Z,12.10
2024-02-08T12:25:33.116Z,12.10
2024-02-08T12:28:05.932Z,12.10
2024-02-08T12:30:37.682Z,12.20
2024-02-08T12:33:10.243Z,12.20
2024-02-08T12:35:41.628Z,12.20
2024-02-08T12:38:10.225Z,12.30
2024-02-08T12:40:37.309Z,12.40
2024-02-08T12:43:09.445Z,12.40
2024-02-08T12:45:37.051Z,12.40
2024-02-08T12:48:09.584Z,12.40
2024-02-08T12:50:39.632Z,12.50
2024-02-08T12:53:14.021Z,12.50
2024-02-08T12:55:41.756Z,12.70
2024-02-08T12:58:14.582Z,12.60
2024-02-08T13:00:41.489Z,12.60
2024-02-08T13:03:09.889Z,12.70
2024-02-08T13:05:41.122Z,12.60
2024-02-08T13:08:09.941Z,12.60
2024-02-08T13:10:39.575Z,12.60
2024-02-08T13:13:11.741Z,12.70
2024-02-08T13:15:42.977Z,12.60
2024-02-08T13:18:11.902Z,12.60
2024-02-08T13:20:41.843Z,12.60
2024-02-08T13:23:10.894Z,12.60
2024-02-08T13:25:38.002Z,12.70
2024-02-08T13:28:07.146Z,12.70
2024-02-08T13:30:37.745Z,12.80
2024-02-08T13:33:06.433Z,12.80
2024-02-08T13:35:40.954Z,12.90
2024-02-08T13:38:12.166Z,12.90
2024-02-08T13:40:44.203Z,12.90
2024-02-08T13:43:12.498Z,13.00
2024-02-08T13:45:41.059Z,12.90
2024-02-08T13:48:17.620Z,12.90
2024-02-08T13:50:45.508Z,12.90
2024-02-08T13:53:16.224Z,12.90
2024-02-08T13:55:54.246Z,12.90
2024-02-08T13:58:25.074Z,13.00
2024-02-08T14:00:56.137Z,13.10
2024-02-08T14:03:25.094Z,13.10
2024-02-08T14:05:53.769Z,13.10
2024-02-08T14:08:25.331Z,13.00
2024-02-08T14:10:52.923Z,12.90
2024-02-08T14:13:30.856Z,13.00
2024-02-08T14:16:01.811Z,13.10
2024-02-08T14:18:33.468Z,13.10
2024-02-08T14:21:03.268Z,13.10
2024-02-08T14:23:44.463Z,13.10
2024-02-08T14:26:31.198Z,13.10
2024-02-08T14:28:58.118Z,13.10
2024-02-08T14:31:24.901Z,13.20
2024-02-08T14:33:52.393Z,13.20
2024-02-08T14:36:19.941Z,13.10
2024-02-08T14:38:48.030Z,13.10
2024-02-08T14:41:27.818Z,13.10
2024-02-08T14:43:56.300Z,13.00
2024-02-08T14:46:27.295Z,13.00
2024-02-08T14:48:55.111Z,13.10
2024-02-08T14:51:25.014Z,13.10
2024-02-08T14:53:55.478Z,13.10
2024-02-08T14:56:22.888Z,13.20
2024-02-08T14:58:57.798Z,13.10
2024-02-08T15:01:41.356Z,13.00
2024-02-08T15:04:17.951Z,13.00
2024-02-08T15:07:05.539Z,13.10
2024-02-08T15:09:35.651Z,13.10
2024-02-08T15:12:06.099Z,13.10
2024-02-08T15:14:38.758Z,13.10
2024-02-08T15:17:11.644Z,13.00
2024-02-08T15:19:49.516Z,12.90
2024-02-08T15:22:40.695Z,13.00
2024-02-08T15:25:08.616Z,13.00
2024-02-08T15:27:49.513Z,13.00
2024-02-08T15:30:20.319Z,12.90
2024-02-08T15:32:48.165Z,13.00
2024-02-08T15:35:25.685Z,13.00
2024-02-08T15:38:11.292Z,13.00
2024-02-08T15:40:46.230Z,13.00
2024-02-08T15:43:17.108Z,13.10
2024-02-08T15:45:54.233Z,13.10
2024-02-08T15:48:33.514Z,13.10
2024-02-08T15:51:10.514Z,13.20
2024-02-08T15:53:50.693Z,13.20
2024-02-08T15:56:21.259Z,13.10
2024-02-08T15:59:02.908Z,13.10
2024-02-08T16:01:48.687Z,13.00
2024-02-08T16:04:40.597Z,13.00
2024-02-08T16:07:13.929Z,12.90
2024-02-08T16:09:41.353Z,13.00
2024-02-08T16:12:15.539Z,12.90
2024-02-08T16:15:00.920Z,12.90
2024-02-08T16:17:38.959Z,13.00
2024-02-08T16:20:16.934Z,12.90
2024-02-08T16:22:57.990Z,12.90
2024-02-08T16:25:44.408Z,12.90
2024-02-08T16:28:20.054Z,12.90
2024-02-08T16:31:00.262Z,12.90
2024-02-08T16:33:48.377Z,12.90
2024-02-08T16:36:32.932Z,12.90
2024-02-08T16:39:08.392Z,12.90
2024-02-08T16:41:48.624Z,12.90
2024-02-08T16:44:16.258Z,12.90
2024-02-08T16:46:53.456Z,12.90
2024-02-08T16:49:20.525Z,12.90
2024-02-08T16:51:50.108Z,12.90
2024-02-08T16:54:31.066Z,12.90
2024-02-08T16:56:58.392Z,12.80
2024-02-08T16:59:36.718Z,12.80
2024-02-08T17:02:13.270Z,12.80
2024-02-08T17:05:03.853Z,12.80
2024-02-08T17:07:46.182Z,12.80
2024-02-08T17:10:37.566Z,12.80
2024-02-08T17:13:17.838Z,12.80
2024-02-08T17:16:11.028Z,12.80
2024-02-08T17:18:58.478Z,12.80
2024-02-08T17:21:44.101Z,12.80
2024-02-08T17:24:23.004Z,12.70
2024-02-08T17:27:03.640Z,12.80
2024-02-08T17:29:37.388Z,12.80
2024-02-08T17:32:14.100Z,12.80
2024-02-08T17:34:41.292Z,12.70
2024-02-08T17:37:08.227Z,12.70
2024-02-08T17:39:41.558Z,12.70
2024-02-08T17:42:09.872Z,12.70
2024-02-08T17:44:41.156Z,12.70
2024-02-08T17:47:09.610Z,12.70
2024-02-08T17:49:37.676Z,12.70
2024-02-08T17:52:06.896Z,12.70
2024-02-08T17:54:46.483Z,12.60
2024-02-08T17:57:24.040Z,12.70
2024-02-08T17:59:59.133Z,12.70
2024-02-08T18:02:26.909Z,12.70
2024-02-08T18:04:54.633Z,12.60
2024-02-08T18:07:21.983Z,12.60
2024-02-08T18:09:55.286Z,12.70
2024-02-08T18:12:24.149Z,12.60
2024-02-08T18:14:52.360Z,12.50
2024-02-08T18:17:25.715Z,12.50
2024-02-08T18:19:53.269Z,12.50
2024-02-08T18:22:31.340Z,12.50
2024-02-08T18:25:02.016Z,12.50
2024-02-08T18:27:33.980Z,12.50
2024-02-08T18:30:05.464Z,12.60
2024-02-08T18:32:35.885Z,12.60
2024-02-08T18:35:03.815Z,12.60
2024-02-08T18:37:35.677Z,12.60
2024-02-08T18:40:08.368Z,12.50
2024-02-08T18:42:39.518Z,12.50
2024-02-08T18:45:17.546Z,12.50
2024-02-08T18:47:45.146Z,12.50
2024-02-08T18:50:13.870Z,12.40
2024-02-08T18:52:43.133Z,12.50
2024-02-08T18:55:17.743Z,12.50
2024-02-08T18:57:45.802Z,12.50
2024-02-08T19:00:23.914Z,12.50
2024-02-08T19:02:50.975Z,12.40
2024-02-08T19:05:17.975Z,12.50
2024-02-08T19:07:47.622Z,12.40
2024-02-08T19:10:14.822Z,12.40
2024-02-08T19:12:42.453Z,12.40
2024-02-08T19:15:12.660Z,12.40
2024-02-08T19:17:45.476Z,12.30
2024-02-08T19:20:19.881Z,12.40
2024-02-08T19:22:47.675Z,12.40
2024-02-08T19:25:15.388Z,12.40
2024-02-08T19:27:43.189Z,12.30
2024-02-08T19:30:14.077Z,12.30
2024-02-08T19:32:41.099Z,12.30
2024-02-08T19:35:11.409Z,12.30
2024-02-08T19:37:38.526Z,12.20
2024-02-08T19:40:09.945Z,12.20
2024-02-08T19:42:36.769Z,12.20
2024-02-08T19:45:13.106Z,12.30
2024-02-08T19:47:40.028Z,12.40
2024-02-08T19:50:10.785Z,12.40
2024-02-08T19:52:45.771Z,12.50
2024-02-08T19:55:21.862Z,12.60
2024-02-08T19:57:50.248Z,12.60
2024-02-08T20:00:23.033Z,12.60
2024-02-08T20:02:53.584Z,12.60
2024-02-08T20:05:23.844Z,12.70
2024-02-08T20:07:51.974Z,12.70
2024-02-08T20:10:20.711Z,12.70
2024-02-08T20:12:49.860Z,12.70
2024-02-08T20:15:18.177Z,12.70
2024-02-08T20:17:51.032Z,12.70
2024-02-08T20:20:23.165Z,12.70
2024-02-08T20:22:53.188Z,12.80
2024-02-08T20:25:27.187Z,12.80
2024-02-08T20:28:01.003Z,12.80
2024-02-08T20:30:29.474Z,12.70
2024-02-08T20:33:00.639Z,12.70
2024-02-08T20:35:30.956Z,12.70
2024-02-08T20:37:59.815Z,12.70
2024-02-08T20:40:27.147Z,12.60
2024-02-08T20:43:00.018Z,12.60
2024-02-08T20:45:28.332Z,12.50
2024-02-08T20:47:55.529Z,12.50
2024-02-08T20:50:22.758Z,12.50
2024-02-08T20:52:50.941Z,12.50
2024-02-08T20:55:36.269Z,12.50
2024-02-08T20:58:05.787Z,12.40
2024-02-08T21:00:32.969Z,12.40
2024-02-08T21:03:03.204Z,12.40
2024-02-08T21:05:30.381Z,12.40
2024-02-08T21:07:58.753Z,12.40
2024-02-08T21:10:29.674Z,12.40
2024-02-08T21:13:00.978Z,12.40
2024-02-08T21:15:29.349Z,12.40
2024-02-08T21:17:56.764Z,12.50
2024-02-08T21:20:23.889Z,12.50
2024-02-08T21:22:50.898Z,12.50
2024-02-08T21:25:19.949Z,12.50
2024-02-08T21:27:53.379Z,12.60
2024-02-08T21:30:21.779Z,12.50
2024-02-08T21:32:49.922Z,12.40
2024-02-08T21:35:19.520Z,12.30
2024-02-08T21:37:46.965Z,12.30
2024-02-08T21:40:14.427Z,12.20
2024-02-08T21:42:41.282Z,12.20
2024-02-08T21:45:13.542Z,12.20
2024-02-08T21:47:40.826Z,12.20
2024-02-08T21:50:08.715Z,12.30
2024-02-08T21:52:39.370Z,12.20
2024-02-08T21:55:08.239Z,12.20
2024-02-08T21:57:35.640Z,12.20
2024-02-08T22:00:12.429Z,12.30
2024-02-08T22:02:41.022Z,12.20
2024-02-08T22:05:11.921Z,12.10
2024-02-08T22:07:39.904Z,12.10
2024-02-08T22:10:14.539Z,12.10
2024-02-08T22:12:46.937Z,12.10
2024-02-08T22:15:21.003Z,12.10
2024-02-08T22:17:54.508Z,12.00
2024-02-08T22:20:24.712Z,12.00
2024-02-08T22:23:00.487Z,11.90
2024-02-08T22:25:27.412Z,11.80
2024-02-08T22:27:54.324Z,11.90
2024-02-08T22:30:21.051Z,12.00
2024-02-08T22:32:48.510Z,12.10
2024-02-08T22:35:16.965Z,12.20
2024-02-08T22:37:44.900Z,12.20
2024-02-08T22:40:11.915Z,12.20
2024-02-08T22:42:39.097Z,12.20
2024-02-08T22:45:13.782Z,12.20
2024-02-08T22:47:43.529Z,12.10
2024-02-08T22:50:15.765Z,12.10
2024-02-08T22:52:45.323Z,12.10
2024-02-08T22:55:15.253Z,12.10
2024-02-08T22:57:42.489Z,12.10
2024-02-08T23:00:22.042Z,12.00
2024-02-08T23:02:56.351Z,11.90
2024-02-08T23:05:28.444Z,11.90
2024-02-08T23:07:58.363Z,11.90
2024-02-08T23:10:25.156Z,11.70
2024-02-08T23:12:53.727Z,11.60
2024-02-08T23:15:21.086Z,11.10
2024-02-08T23:17:55.837Z,11.10
2024-02-08T23:20:23.189Z,11.00
2024-02-08T23:22:51.090Z,11.10
2024-02-08T23:25:18.172Z,11.00
2024-02-08T23:27:48.773Z,11.00
2024-02-08T23:30:16.399Z,11.10
2024-02-08T23:32:52.203Z,11.30
2024-02-08T23:35:23.914Z,11.10
2024-02-08T23:37:52.743Z,10.80
2024-02-08T23:40:19.815Z,10.70
2024-02-08T23:42:46.526Z,10.80
2024-02-08T23:45:19.040Z,10.80
2024-02-08T23:47:47.126Z,10.80
2024-02-08T23:50:14.323Z,10.60
2024-02-08T23:52:41.421Z,10.70
2024-02-08T23:55:08.945Z,10.80
2024-02-08T23:57:38.785Z,10.50
